Time;durP1;ratioP1;P1;durP2;ratioP2;P2;SDS_P1;SDS_P2;PMS_P1;PMS_P2;Temp;Humidity;BMP_temperature;BMP_pressure;BME280_temperature;BME280_humidity;BME280_pressure;Samples;Min_cycle;Max_cycle;Signal;HPM_P1;HPM_P2
2023/07/04 00:01:10;;;;;;;86.45;53.38;;;18.40;73.20;;;;;;4940857;28;89621;-45
2023/07/04 00:03:37;;;;;;;85.72;53.58;;;18.40;72.50;;;;;;4938293;28;89869;-45
2023/07/04 00:06:05;;;;;;;85.90;53.70;;;18.40;72.10;;;;;;4938631;28;92660;-44
2023/07/04 00:08:33;;;;;;;87.22;53.67;;;18.40;72.90;;;;;;4944759;28;89656;-44
2023/07/04 00:11:00;;;;;;;85.93;53.22;;;18.30;73.10;;;;;;4897869;28;1173668;-45
2023/07/04 00:13:30;;;;;;;88.22;53.35;;;18.30;73.80;;;;;;4947165;28;89800;-45
2023/07/04 00:15:57;;;;;;;85.20;53.63;;;18.30;72.30;;;;;;4943569;28;90346;-44
2023/07/04 00:18:25;;;;;;;84.30;53.38;;;18.20;72.80;;;;;;4944379;28;89669;-46
2023/07/04 00:20:56;;;;;;;84.88;53.15;;;18.20;73.60;;;;;;4940948;28;90562;-46
2023/07/04 00:23:27;;;;;;;87.18;53.53;;;18.30;72.50;;;;;;4944251;28;89849;-44
2023/07/04 00:25:54;;;;;;;85.00;53.25;;;18.20;72.80;;;;;;4940374;28;89616;-45
2023/07/04 00:28:21;;;;;;;84.85;53.40;;;18.20;76.10;;;;;;4937418;28;89545;-45
2023/07/04 00:30:54;;;;;;;87.43;53.80;;;18.20;73.70;;;;;;4932414;28;91095;-45
2023/07/04 00:33:20;;;;;;;84.93;53.50;;;18.20;75.90;;;;;;4939460;28;90251;-45
2023/07/04 00:35:46;;;;;;;84.57;53.10;;;18.20;73.40;;;;;;4934073;28;90158;-44
2023/07/04 00:38:12;;;;;;;88.18;53.58;;;18.20;73.50;;;;;;4934301;28;89556;-44
2023/07/04 00:40:38;;;;;;;84.18;53.08;;;18.10;73.20;;;;;;4943388;28;89330;-44
2023/07/04 00:43:05;;;;;;;85.78;53.25;;;18.10;73.40;;;;;;4936765;28;92313;-44
2023/07/04 00:45:38;;;;;;;86.18;53.45;;;18.10;73.30;;;;;;4929415;28;91531;-45
2023/07/04 00:48:05;;;;;;;86.00;53.40;;;18.10;73.30;;;;;;4944561;28;88940;-44
2023/07/04 00:50:36;;;;;;;86.85;53.65;;;18.10;74.60;;;;;;4940255;28;89756;-45
2023/07/04 00:53:08;;;;;;;86.40;53.23;;;18.10;73.90;;;;;;4930840;28;92545;-44
2023/07/04 00:55:37;;;;;;;83.60;53.20;;;18.10;73.30;;;;;;4940192;28;91339;-44
2023/07/04 00:58:04;;;;;;;85.18;53.25;;;18.10;74.30;;;;;;4927561;28;89399;-45
2023/07/04 01:00:31;;;;;;;84.55;53.10;;;18.10;73.10;;;;;;4941560;28;89543;-46
2023/07/04 01:03:11;;;;;;;85.80;53.17;;;18.10;72.90;;;;;;4945162;28;89642;-44
2023/07/04 01:05:53;;;;;;;85.10;53.88;;;18.00;73.00;;;;;;4946246;28;89572;-44
2023/07/04 01:08:32;;;;;;;85.32;53.63;;;18.00;75.50;;;;;;4937904;28;90072;-44
2023/07/04 01:11:01;;;;;;;86.00;53.25;;;18.00;73.40;;;;;;4939484;28;89829;-45
2023/07/04 01:13:34;;;;;;;84.20;52.88;;;18.00;73.70;;;;;;4944475;28;90266;-44
2023/07/04 01:16:10;;;;;;;85.82;53.53;;;18.00;74.30;;;;;;4945060;28;90144;-45
2023/07/04 01:18:38;;;;;;;85.60;53.10;;;18.00;73.90;;;;;;4941380;28;89714;-45
2023/07/04 01:21:05;;;;;;;83.78;53.47;;;17.90;73.80;;;;;;4934115;28;90971;-45
2023/07/04 01:23:54;;;;;;;84.80;53.17;;;17.90;74.30;;;;;;4944072;28;90843;-44
2023/07/04 01:26:34;;;;;;;86.45;53.38;;;17.90;74.60;;;;;;4948075;28;90374;-45
2023/07/04 01:29:01;;;;;;;83.60;53.33;;;17.90;73.50;;;;;;4941629;28;89618;-44
2023/07/04 01:31:30;;;;;;;85.18;53.10;;;17.90;75.90;;;;;;4943541;28;90313;-44
2023/07/04 01:33:57;;;;;;;86.15;53.25;;;17.90;73.80;;;;;;4943930;28;89759;-44
2023/07/04 01:36:28;;;;;;;84.20;53.22;;;17.90;73.10;;;;;;4942099;28;89534;-44
2023/07/04 01:38:53;;;;;;;;;;;17.80;73.50;;;;;;4936854;28;91715;-46
2023/07/04 01:41:21;;;;;;;83.78;52.67;;;17.90;74.40;;;;;;4942218;28;89521;-45
2023/07/04 01:43:52;;;;;;;86.00;53.50;;;17.80;74.50;;;;;;4947247;28;92185;-45
2023/07/04 01:46:18;;;;;;;84.50;52.95;;;17.80;75.20;;;;;;4942026;28;91172;-44
2023/07/04 01:48:44;;;;;;;85.45;53.05;;;17.80;75.40;;;;;;4939384;28;90391;-45
2023/07/04 01:51:10;;;;;;;85.85;53.10;;;17.80;75.00;;;;;;4942792;28;90972;-44
2023/07/04 01:53:36;;;;;;;85.88;53.13;;;17.80;73.30;;;;;;4942137;28;90009;-45
2023/07/04 01:56:01;;;;;;;83.15;52.90;;;17.80;74.60;;;;;;4944692;28;89802;-45
2023/07/04 01:58:27;;;;;;;84.75;53.15;;;17.70;76.00;;;;;;4938035;28;89533;-44
2023/07/04 02:00:55;;;;;;;83.82;53.13;;;17.70;74.40;;;;;;4947000;28;90293;-45
2023/07/04 02:03:21;;;;;;;85.57;53.22;;;17.70;74.60;;;;;;4943527;28;89994;-44
2023/07/04 02:05:46;;;;;;;85.68;53.25;;;17.70;75.00;;;;;;4934278;28;93114;-46
2023/07/04 02:08:12;;;;;;;85.25;53.03;;;17.70;73.40;;;;;;4940278;28;89809;-45
2023/07/04 02:10:38;;;;;;;85.85;53.15;;;17.70;74.00;;;;;;4947004;28;90805;-44
2023/07/04 02:13:04;;;;;;;82.55;52.78;;;17.70;74.20;;;;;;4946523;28;89743;-46
2023/07/04 02:15:31;;;;;;;85.10;53.00;;;17.60;74.70;;;;;;4941227;28;89567;-46
2023/07/04 02:17:57;;;;;;;85.47;53.08;;;17.60;74.60;;;;;;4944159;28;89893;-46
2023/07/04 02:20:23;;;;;;;83.03;52.92;;;17.60;75.00;;;;;;4942601;28;89981;-45
2023/07/04 02:22:48;;;;;;;85.03;53.40;;;17.60;75.00;;;;;;4942846;28;89833;-44
2023/07/04 02:25:14;;;;;;;85.15;52.90;;;17.60;75.70;;;;;;4947744;28;93215;-44
2023/07/04 02:27:40;;;;;;;86.10;53.22;;;17.60;74.30;;;;;;4946315;28;88866;-45
2023/07/04 02:30:07;;;;;;;86.68;53.58;;;17.60;74.40;;;;;;4945309;28;90019;-44
2023/07/04 02:32:33;;;;;;;87.95;53.47;;;17.50;74.40;;;;;;4947234;28;89586;-44
2023/07/04 02:34:58;;;;;;;86.20;53.22;;;17.50;74.40;;;;;;4943192;28;91458;-44
2023/07/04 02:37:24;;;;;;;86.60;53.45;;;17.50;77.10;;;;;;4944362;28;90002;-44
2023/07/04 02:39:50;;;;;;;85.47;53.22;;;17.50;75.00;;;;;;4942165;28;89480;-45
2023/07/04 02:42:16;;;;;;;85.88;53.28;;;17.50;74.90;;;;;;4948870;28;90515;-45
2023/07/04 02:44:41;;;;;;;85.38;53.03;;;17.50;73.80;;;;;;4948724;28;92339;-43
2023/07/04 02:47:07;;;;;;;84.63;52.75;;;17.50;75.00;;;;;;4951581;28;89948;-43
2023/07/04 02:49:35;;;;;;;86.30;53.33;;;17.50;76.30;;;;;;4943663;28;91524;-44
2023/07/04 02:52:01;;;;;;;84.20;53.25;;;17.50;73.90;;;;;;4951339;28;90620;-44
2023/07/04 02:54:26;;;;;;;84.30;52.83;;;17.40;76.50;;;;;;4944866;28;89518;-46
2023/07/04 02:56:52;;;;;;;83.43;53.03;;;17.40;74.60;;;;;;4942020;28;92744;-44
2023/07/04 02:59:18;;;;;;;83.80;53.28;;;17.40;74.20;;;;;;4950294;28;90672;-45
2023/07/04 03:01:44;;;;;;;83.90;52.78;;;17.40;75.50;;;;;;4943376;28;89709;-45
2023/07/04 03:04:10;;;;;;;86.28;53.60;;;17.40;76.40;;;;;;4943759;28;89568;-44
2023/07/04 03:06:36;;;;;;;81.90;52.58;;;17.40;74.50;;;;;;4946904;28;89801;-46
2023/07/04 03:09:02;;;;;;;86.20;53.45;;;17.40;74.30;;;;;;4940736;28;89981;-44
2023/07/04 03:11:28;;;;;;;83.85;53.03;;;17.30;74.00;;;;;;4935128;28;89806;-45
2023/07/04 03:13:53;;;;;;;85.22;53.45;;;17.30;75.60;;;;;;4949399;28;91944;-45
2023/07/04 03:16:19;;;;;;;86.13;52.85;;;17.30;75.70;;;;;;4947836;28;88690;-44
2023/07/04 03:18:45;;;;;;;82.90;52.95;;;17.30;74.30;;;;;;4929879;28;89768;-45
2023/07/04 03:21:11;;;;;;;84.32;53.15;;;17.30;75.40;;;;;;4946634;28;89937;-45
2023/07/04 03:23:37;;;;;;;86.00;53.40;;;17.30;76.30;;;;;;4934836;28;92793;-46
2023/07/04 03:26:02;;;;;;;86.47;52.70;;;17.30;74.60;;;;;;4942985;28;89564;-44
2023/07/04 03:28:28;;;;;;;85.15;53.08;;;17.30;75.00;;;;;;4940222;28;89464;-44
2023/07/04 03:30:54;;;;;;;84.90;52.78;;;17.30;74.70;;;;;;4949467;28;90599;-44
2023/07/04 03:33:20;;;;;;;84.35;53.10;;;17.30;74.40;;;;;;4943157;28;89910;-45
2023/07/04 03:35:46;;;;;;;84.72;53.20;;;17.20;74.50;;;;;;4943633;28;89589;-45
2023/07/04 03:38:12;;;;;;;83.55;52.55;;;17.20;74.60;;;;;;4935598;28;90378;-44
2023/07/04 03:40:38;;;;;;;86.78;53.05;;;17.20;74.60;;;;;;4923618;28;89031;-44
2023/07/04 03:43:04;;;;;;;83.43;53.03;;;17.20;74.50;;;;;;4952589;28;89646;-45
2023/07/04 03:45:30;;;;;;;84.15;53.28;;;17.20;75.50;;;;;;4946042;28;89820;-44
2023/07/04 03:47:55;;;;;;;83.93;53.15;;;17.20;75.70;;;;;;4939387;28;91362;-44
2023/07/04 03:50:21;;;;;;;82.88;52.90;;;17.20;74.50;;;;;;4949718;28;90181;-44
2023/07/04 03:52:47;;;;;;;83.22;52.88;;;17.10;74.90;;;;;;4941176;28;89685;-44
2023/07/04 03:55:12;;;;;;;82.88;52.70;;;17.20;77.00;;;;;;4951313;28;89944;-45
2023/07/04 03:57:38;;;;;;;85.30;52.95;;;17.10;74.90;;;;;;4939921;28;89496;-45
2023/07/04 04:00:09;;;;;;;84.70;52.58;;;17.10;75.50;;;;;;4942535;28;90067;-44
2023/07/04 04:02:35;;;;;;;87.32;52.90;;;17.10;74.70;;;;;;4930067;28;90094;-43
2023/07/04 04:05:01;;;;;;;84.18;52.75;;;17.10;74.60;;;;;;4933729;28;95646;-45
2023/07/04 04:07:27;;;;;;;84.40;52.80;;;17.10;75.00;;;;;;4947772;28;91844;-45
2023/07/04 04:09:52;;;;;;;83.55;53.03;;;17.10;75.30;;;;;;4941346;28;90145;-46
2023/07/04 04:12:18;;;;;;;83.78;53.15;;;17.10;75.20;;;;;;4945128;28;90780;-44
2023/07/04 04:14:44;;;;;;;84.43;53.00;;;17.00;75.00;;;;;;4938475;28;90242;-44
2023/07/04 04:17:09;;;;;;;86.80;53.10;;;17.00;74.80;;;;;;4927012;28;90821;-44
2023/07/04 04:19:35;;;;;;;83.38;53.40;;;17.00;75.00;;;;;;4936151;28;91767;-45
2023/07/04 04:22:00;;;;;;;85.82;53.20;;;17.00;75.80;;;;;;4945265;28;89885;-44
2023/07/04 04:24:26;;;;;;;85.35;52.95;;;17.00;75.30;;;;;;4938848;28;90872;-45
2023/07/04 04:26:52;;;;;;;86.55;53.13;;;17.00;76.40;;;;;;4946176;28;89651;-45
2023/07/04 04:29:17;;;;;;;85.22;53.20;;;17.00;75.30;;;;;;4946933;28;90288;-44
2023/07/04 04:31:45;;;;;;;85.32;53.33;;;17.00;74.90;;;;;;4934953;28;90274;-44
2023/07/04 04:34:11;;;;;;;86.65;53.50;;;17.00;77.50;;;;;;4945277;28;89989;-44
2023/07/04 04:36:37;;;;;;;86.95;53.53;;;17.00;75.20;;;;;;4941456;28;91474;-44
2023/07/04 04:39:04;;;;;;;83.07;53.10;;;17.00;75.20;;;;;;4938097;28;89762;-45
2023/07/04 04:41:30;;;;;;;84.95;53.60;;;17.10;75.60;;;;;;4938884;28;92374;-44
2023/07/04 04:44:04;;;;;;;86.10;53.60;;;17.10;79.40;;;;;;4928695;28;95221;-44
2023/07/04 04:46:31;;;;;;;85.68;53.10;;;17.10;75.20;;;;;;4930905;28;94865;-44
2023/07/04 04:48:58;;;;;;;85.07;53.33;;;17.10;76.70;;;;;;4938495;28;89860;-45
2023/07/04 04:51:24;;;;;;;84.75;52.83;;;17.20;76.30;;;;;;4940736;28;89546;-45
2023/07/04 04:53:50;;;;;;;85.45;53.17;;;17.20;75.40;;;;;;4935741;28;89405;-45
2023/07/04 04:56:16;;;;;;;85.95;52.88;;;17.20;75.00;;;;;;4935398;28;91352;-45
2023/07/04 04:58:44;;;;;;;86.00;53.10;;;17.20;74.60;;;;;;4948285;28;89897;-45
2023/07/04 05:01:22;;;;;;;87.88;53.80;;;17.20;75.00;;;;;;4942351;28;90563;-45
2023/07/04 05:03:53;;;;;;;84.85;53.42;;;17.20;75.00;;;;;;4944996;28;90123;-46
2023/07/04 05:06:20;;;;;;;84.73;53.00;;;17.30;76.40;;;;;;4939806;28;89932;-45
2023/07/04 05:08:46;;;;;;;84.93;53.20;;;17.30;74.80;;;;;;4941160;28;90624;-47
2023/07/04 05:11:13;;;;;;;86.07;53.25;;;17.30;75.70;;;;;;4944044;28;91556;-44
2023/07/04 05:13:40;;;;;;;86.38;53.65;;;17.30;75.10;;;;;;4938279;28;90506;-45
2023/07/04 05:16:09;;;;;;;89.85;53.78;;;17.30;76.80;;;;;;4939328;28;89439;-44
2023/07/04 05:18:36;;;;;;;86.25;53.80;;;17.40;75.70;;;;;;4935797;28;90057;-45
2023/07/04 05:21:04;;;;;;;86.38;53.13;;;17.40;74.80;;;;;;4940108;28;90339;-47
2023/07/04 05:23:33;;;;;;;90.85;53.60;;;17.40;77.20;;;;;;4949133;28;89749;-45
2023/07/04 05:26:07;;;;;;;87.05;53.72;;;17.40;75.10;;;;;;4943717;28;90921;-45
2023/07/04 05:28:33;;;;;;;86.60;53.55;;;17.50;74.60;;;;;;4932302;28;89774;-44
2023/07/04 05:31:01;;;;;;;84.43;53.40;;;17.50;75.60;;;;;;4938790;28;89542;-44
2023/07/04 05:33:27;;;;;;;87.60;53.83;;;17.50;74.30;;;;;;4945621;28;89851;-44
2023/07/04 05:36:11;;;;;;;88.47;53.53;;;17.50;75.30;;;;;;4941109;28;90531;-44
2023/07/04 05:38:37;;;;;;;83.97;53.10;;;17.60;74.90;;;;;;4934732;28;92036;-44
2023/07/04 05:41:11;;;;;;;87.88;53.95;;;17.60;74.00;;;;;;4943162;28;89528;-45
2023/07/04 05:43:37;;;;;;;87.70;53.42;;;17.60;74.70;;;;;;4950735;28;88788;-44
2023/07/04 05:46:02;;;;;;;89.38;53.92;;;17.70;73.50;;;;;;4939661;28;93105;-45
2023/07/04 05:48:29;;;;;;;86.13;53.50;;;17.70;73.00;;;;;;4931333;28;89603;-45
2023/07/04 05:51:04;;;;;;;86.55;53.75;;;17.70;72.80;;;;;;4943874;28;91399;-46
2023/07/04 05:53:32;;;;;;;85.43;53.63;;;17.70;73.20;;;;;;4945174;28;91246;-44
2023/07/04 05:56:13;;;;;;;88.05;54.22;;;17.80;72.80;;;;;;4939046;28;89589;-44
2023/07/04 05:58:41;;;;;;;87.57;53.88;;;17.80;72.50;;;;;;4942982;28;89922;-46
2023/07/04 06:01:16;;;;;;;91.35;54.30;;;17.90;74.60;;;;;;4948369;28;89947;-45
2023/07/04 06:03:43;;;;;;;89.18;54.58;;;17.90;73.40;;;;;;4944414;28;89471;-44
2023/07/04 06:06:25;;;;;;;86.53;53.78;;;18.00;73.70;;;;;;4943178;28;89940;-45
2023/07/04 06:08:52;;;;;;;88.63;54.03;;;18.00;73.60;;;;;;4949751;28;89097;-44
2023/07/04 06:11:19;;;;;;;86.47;53.63;;;18.00;73.60;;;;;;4942133;28;92366;-44
2023/07/04 06:13:44;;;;;;;89.25;53.92;;;18.10;72.50;;;;;;4944166;28;89848;-45
2023/07/04 06:16:10;;;;;;;87.68;53.72;;;18.10;73.00;;;;;;4940271;28;90952;-46
2023/07/04 06:18:36;;;;;;;90.25;54.88;;;18.10;72.50;;;;;;4941726;28;90219;-44
2023/07/04 06:21:13;;;;;;;89.13;54.50;;;18.20;73.60;;;;;;4948129;28;93660;-44
2023/07/04 06:23:39;;;;;;;88.90;54.15;;;18.20;73.60;;;;;;4947122;28;90068;-45
2023/07/04 06:26:06;;;;;;;88.88;54.30;;;18.30;73.30;;;;;;4945043;28;91341;-44
2023/07/04 06:28:33;;;;;;;90.78;54.55;;;18.30;71.40;;;;;;4942094;28;90092;-46
2023/07/04 06:31:03;;;;;;;89.03;54.28;;;18.40;72.40;;;;;;4946362;28;89471;-44
2023/07/04 06:33:29;;;;;;;88.95;54.50;;;18.40;73.00;;;;;;4944331;28;88854;-45
2023/07/04 06:35:55;;;;;;;90.32;54.05;;;18.50;73.80;;;;;;4945813;28;90507;-44
2023/07/04 06:38:21;;;;;;;86.80;54.22;;;18.50;70.90;;;;;;4943904;28;89812;-45
2023/07/04 06:40:58;;;;;;;90.65;54.38;;;18.60;72.70;;;;;;4947280;28;91049;-45
2023/07/04 06:43:29;;;;;;;87.20;54.30;;;18.60;72.20;;;;;;4948684;28;90794;-44
2023/07/04 06:45:55;;;;;;;87.90;54.58;;;18.70;73.30;;;;;;4939496;28;89751;-44
2023/07/04 06:48:22;;;;;;;88.82;54.67;;;18.70;73.40;;;;;;4942301;28;89919;-45
2023/07/04 06:50:56;;;;;;;90.03;54.25;;;18.70;71.40;;;;;;4933828;28;90040;-44
2023/07/04 06:53:22;;;;;;;91.68;54.92;;;18.80;70.40;;;;;;4948155;28;89495;-45
2023/07/04 06:55:48;;;;;;;88.90;54.67;;;18.80;72.70;;;;;;4947799;28;91906;-44
2023/07/04 06:58:15;;;;;;;87.13;54.00;;;18.80;71.50;;;;;;4945957;28;89070;-44
2023/07/04 07:00:41;;;;;;;87.50;54.10;;;18.90;70.70;;;;;;4952117;28;89458;-45
2023/07/04 07:03:07;;;;;;;86.97;54.35;;;18.90;69.70;;;;;;4947411;28;89503;-45
2023/07/04 07:05:37;;;;;;;88.63;54.33;;;18.90;69.70;;;;;;4941221;28;90622;-45
2023/07/04 07:08:03;;;;;;;88.18;54.60;;;19.00;70.00;;;;;;4941611;28;89986;-44
2023/07/04 07:10:31;;;;;;;88.70;54.90;;;19.00;70.00;;;;;;4946735;28;89262;-44
2023/07/04 07:12:57;;;;;;;88.38;54.33;;;19.10;69.40;;;;;;4938211;28;89562;-44
2023/07/04 07:15:25;;;;;;;90.13;54.80;;;19.10;69.20;;;;;;4941360;28;91022;-44
2023/07/04 07:17:50;;;;;;;87.15;54.22;;;19.10;71.60;;;;;;4942562;28;89609;-46
2023/07/04 07:20:16;;;;;;;89.40;54.65;;;19.20;70.10;;;;;;4945965;28;90946;-45
2023/07/04 07:22:41;;;;;;;88.97;54.55;;;19.20;71.10;;;;;;4950726;28;88879;-45
2023/07/04 07:25:07;;;;;;;89.50;54.58;;;19.20;70.30;;;;;;4944674;28;90385;-44
2023/07/04 07:27:33;;;;;;;89.55;54.67;;;19.30;70.00;;;;;;4943023;28;90346;-44
2023/07/04 07:29:58;;;;;;;89.93;54.70;;;19.40;70.80;;;;;;4935675;28;90414;-43
2023/07/04 07:32:24;;;;;;;90.88;54.80;;;19.40;72.60;;;;;;4941975;28;89431;-44
2023/07/04 07:34:50;;;;;;;89.45;54.75;;;19.40;70.70;;;;;;4944468;28;90089;-44
2023/07/04 07:37:15;;;;;;;88.63;54.63;;;19.50;69.50;;;;;;4946832;28;90507;-45
2023/07/04 07:39:42;;;;;;;89.25;54.53;;;19.50;69.20;;;;;;4945654;28;89761;-44
2023/07/04 07:42:08;;;;;;;90.18;54.55;;;19.60;70.60;;;;;;4945760;28;90089;-45
2023/07/04 07:44:34;;;;;;;88.65;54.22;;;19.60;70.10;;;;;;4942827;28;90359;-44
2023/07/04 07:47:00;;;;;;;90.97;55.17;;;19.70;68.90;;;;;;4950484;28;91631;-45
2023/07/04 07:49:26;;;;;;;91.90;54.90;;;19.70;68.70;;;;;;4945754;28;89727;-43
2023/07/04 07:51:51;;;;;;;90.18;54.85;;;19.80;69.10;;;;;;4941469;28;89665;-43
2023/07/04 07:54:17;;;;;;;90.25;55.33;;;19.90;67.90;;;;;;4939050;28;92024;-44
2023/07/04 07:56:44;;;;;;;89.75;54.80;;;19.90;69.30;;;;;;4938645;28;90605;-43
2023/07/04 07:59:11;;;;;;;90.78;55.35;;;20.00;71.60;;;;;;4948829;28;89691;-42
2023/07/04 08:01:37;;;;;;;89.45;55.10;;;20.10;70.60;;;;;;4936539;28;90263;-44
2023/07/04 08:04:05;;;;;;;89.70;54.70;;;20.20;69.50;;;;;;4944494;28;89966;-43
2023/07/04 08:06:38;;;;;;;91.53;55.25;;;20.30;68.80;;;;;;4948575;28;89577;-44
2023/07/04 08:09:07;;;;;;;90.30;55.17;;;20.30;68.20;;;;;;4949723;28;90613;-44
2023/07/04 08:11:33;;;;;;;88.97;55.13;;;20.40;68.90;;;;;;4940037;28;89258;-43
2023/07/04 08:13:59;;;;;;;90.18;55.35;;;20.50;68.00;;;;;;4950218;28;89465;-43
2023/07/04 08:16:28;;;;;;;89.55;55.42;;;20.60;68.30;;;;;;4940124;28;90902;-43
2023/07/04 08:18:54;;;;;;;91.15;55.30;;;20.60;67.40;;;;;;4937958;28;92694;-43
2023/07/04 08:21:20;;;;;;;93.18;55.83;;;20.80;66.60;;;;;;4945317;28;89591;-42
2023/07/04 08:23:46;;;;;;;89.38;55.25;;;20.80;66.70;;;;;;4949396;28;89768;-44
2023/07/04 08:26:17;;;;;;;93.18;55.15;;;20.80;66.00;;;;;;4933927;28;89763;-42
2023/07/04 08:28:42;;;;;;;93.55;54.92;;;20.80;66.40;;;;;;4940133;28;89740;-43
2023/07/04 08:31:09;;;;;;;90.60;55.42;;;20.90;66.50;;;;;;4938205;28;89586;-43
2023/07/04 08:33:35;;;;;;;91.50;55.38;;;20.90;66.20;;;;;;4942194;28;89652;-43
2023/07/04 08:36:04;;;;;;;89.95;54.83;;;21.00;66.50;;;;;;4934668;28;89355;-44
2023/07/04 08:38:30;;;;;;;91.22;55.00;;;21.10;66.80;;;;;;4930651;28;89826;-44
2023/07/04 08:40:56;;;;;;;93.05;55.63;;;21.10;66.90;;;;;;4937306;28;89501;-45
2023/07/04 08:43:44;;;;;;;92.85;55.45;;;21.10;67.50;;;;;;4948363;28;93350;-43
2023/07/04 08:46:13;;;;;;;88.40;54.83;;;21.30;66.90;;;;;;4942987;28;90552;-43
2023/07/04 08:48:41;;;;;;;90.47;55.58;;;21.30;66.00;;;;;;4939138;28;89962;-42
2023/07/04 08:51:10;;;;;;;93.68;55.33;;;21.40;65.90;;;;;;4936799;28;90112;-43
2023/07/04 08:53:40;;;;;;;90.10;55.38;;;21.50;66.40;;;;;;4936174;28;93688;-45
2023/07/04 08:56:31;;;;;;;92.15;55.85;;;21.50;65.50;;;;;;4936871;28;90599;-45
2023/07/04 08:59:23;;;;;;;90.35;55.13;;;21.60;65.30;;;;;;4931323;28;90043;-44
2023/07/04 09:02:23;;;;;;;91.05;55.83;;;21.60;65.30;;;;;;4944299;28;89071;-42
2023/07/04 09:05:16;;;;;;;91.23;55.93;;;21.70;65.30;;;;;;4949839;28;91055;-42
2023/07/04 09:07:55;;;;;;;89.50;55.22;;;21.80;65.30;;;;;;4944499;28;90054;-43
2023/07/04 09:10:27;;;;;;;90.57;54.88;;;21.90;65.00;;;;;;4937858;28;90631;-43
2023/07/04 09:12:52;;;;;;;91.68;55.67;;;21.90;64.70;;;;;;4928483;28;90699;-42
2023/07/04 09:15:31;;;;;;;92.68;55.67;;;21.90;64.10;;;;;;4932905;28;90416;-43
2023/07/04 09:18:09;;;;;;;91.93;56.38;;;22.00;65.00;;;;;;4944527;28;89570;-44
2023/07/04 09:20:43;;;;;;;90.90;55.58;;;22.10;64.90;;;;;;4934341;28;90274;-45
2023/07/04 09:23:14;;;;;;;92.35;56.15;;;22.20;64.80;;;;;;4946580;28;89479;-46
2023/07/04 09:25:40;;;;;;;93.72;56.53;;;22.20;64.80;;;;;;4946972;28;90196;-43
2023/07/04 09:28:06;;;;;;;94.55;56.55;;;22.30;64.80;;;;;;4946768;28;90069;-43
2023/07/04 09:30:33;;;;;;;96.63;56.88;;;22.30;64.60;;;;;;4928475;28;89633;-42
2023/07/04 09:32:58;;;;;;;96.32;56.67;;;22.40;64.20;;;;;;4937411;28;89735;-42
2023/07/04 09:35:24;;;;;;;94.57;56.47;;;22.50;64.00;;;;;;4931448;28;91239;-42
2023/07/04 09:38:07;;;;;;;94.90;56.90;;;22.50;64.00;;;;;;4935849;28;91394;-42
2023/07/04 09:40:40;;;;;;;93.88;56.45;;;22.60;63.80;;;;;;4942558;28;89530;-42
2023/07/04 09:43:07;;;;;;;95.72;56.63;;;22.60;63.90;;;;;;4939287;28;89860;-42
2023/07/04 09:45:33;;;;;;;92.57;56.45;;;22.70;64.30;;;;;;4940409;28;89989;-43
2023/07/04 09:48:00;;;;;;;94.72;56.78;;;22.70;63.80;;;;;;4946155;28;90924;-43
2023/07/04 09:50:29;;;;;;;94.43;56.50;;;22.70;63.60;;;;;;4944867;28;89831;-43
2023/07/04 09:53:04;;;;;;;95.32;56.47;;;22.80;62.70;;;;;;4947379;28;91752;-42
2023/07/04 09:55:30;;;;;;;94.20;56.78;;;22.90;62.90;;;;;;4945681;28;89687;-42
2023/07/04 09:58:18;;;;;;;97.80;57.28;;;22.90;63.10;;;;;;4943729;28;89773;-42
2023/07/04 10:00:46;;;;;;;95.35;57.05;;;23.00;61.70;;;;;;4944528;28;90587;-43
2023/07/04 10:03:12;;;;;;;94.50;56.72;;;23.10;62.40;;;;;;4942660;28;89783;-43
2023/07/04 10:05:38;;;;;;;99.15;57.50;;;23.10;62.60;;;;;;4950914;28;90908;-43
2023/07/04 10:08:12;;;;;;;92.25;56.30;;;23.10;61.80;;;;;;4950826;28;90094;-42
2023/07/04 10:10:45;;;;;;;95.65;57.45;;;23.20;63.20;;;;;;4944726;28;90079;-43
2023/07/04 10:13:12;;;;;;;94.18;57.10;;;23.20;63.00;;;;;;4946366;28;93327;-42
2023/07/04 10:15:42;;;;;;;95.95;57.67;;;23.20;62.30;;;;;;4948479;28;90023;-44
2023/07/04 10:18:31;;;;;;;96.57;57.22;;;23.30;60.30;;;;;;4949390;28;89909;-44
2023/07/04 10:20:59;;;;;;;96.32;57.35;;;23.30;61.90;;;;;;4950154;28;89603;-43
2023/07/04 10:23:26;;;;;;;94.35;57.33;;;23.40;61.80;;;;;;4946923;28;92099;-44
2023/07/04 10:25:54;;;;;;;97.43;57.88;;;23.40;60.70;;;;;;4942796;28;91044;-44
2023/07/04 10:28:25;;;;;;;95.85;57.63;;;23.40;60.30;;;;;;4944235;28;92574;-43
2023/07/04 10:30:55;;;;;;;98.15;57.42;;;23.50;62.10;;;;;;4945304;28;90557;-44
2023/07/04 10:33:44;;;;;;;93.80;56.90;;;23.50;61.00;;;;;;4943955;28;90004;-43
2023/07/04 10:36:14;;;;;;;96.90;57.70;;;23.60;61.70;;;;;;4938586;28;90194;-42
2023/07/04 10:38:49;;;;;;;97.30;58.17;;;23.60;61.30;;;;;;4936168;28;92392;-43
2023/07/04 10:41:40;;;;;;;95.03;57.78;;;23.70;59.10;;;;;;4945906;28;90381;-42
2023/07/04 10:44:20;;;;;;;95.90;57.83;;;23.70;59.10;;;;;;4950784;28;88859;-42
2023/07/04 10:46:51;;;;;;;97.78;57.65;;;23.80;60.80;;;;;;4950174;28;90294;-43
2023/07/04 10:49:20;;;;;;;95.30;57.58;;;23.80;59.80;;;;;;4943167;28;92154;-42
2023/07/04 10:51:49;;;;;;;96.80;57.58;;;23.80;60.00;;;;;;4947611;28;91525;-42
2023/07/04 10:54:15;;;;;;;98.80;58.08;;;23.80;59.80;;;;;;4939061;28;90112;-42
2023/07/04 10:56:49;;;;;;;94.05;57.22;;;23.90;60.10;;;;;;4945091;28;90728;-42
2023/07/04 10:59:19;;;;;;;96.35;57.78;;;23.90;60.70;;;;;;4942043;28;89645;-44
2023/07/04 11:01:50;;;;;;;94.00;57.03;;;23.90;58.80;;;;;;4939135;28;89457;-43
2023/07/04 11:04:20;;;;;;;;;;;23.90;59.30;;;;;;4943326;28;89654;-43
2023/07/04 11:07:08;;;;;;;94.65;57.50;;;24.00;58.90;;;;;;4951006;28;90220;-43
2023/07/04 11:09:40;;;;;;;93.53;57.10;;;24.00;59.30;;;;;;4927473;28;90308;-43
2023/07/04 11:12:11;;;;;;;98.10;57.60;;;24.00;58.80;;;;;;4944181;28;89492;-42
2023/07/04 11:14:40;;;;;;;95.13;57.65;;;24.00;59.40;;;;;;4946583;28;89553;-44
2023/07/04 11:17:10;;;;;;;95.47;57.58;;;24.00;60.00;;;;;;4946283;28;92203;-43
2023/07/04 11:19:52;;;;;;;96.88;57.78;;;24.00;60.10;;;;;;4946568;28;91085;-44
2023/07/04 11:22:17;;;;;;;94.50;57.65;;;24.10;58.70;;;;;;4930159;28;90380;-42
2023/07/04 11:24:52;;;;;;;99.82;57.40;;;24.10;59.00;;;;;;4943499;28;89596;-43
2023/07/04 11:27:29;;;;;;;94.68;57.38;;;24.10;59.40;;;;;;4939168;28;91111;-43
2023/07/04 11:30:02;;;;;;;95.38;57.65;;;24.10;60.00;;;;;;4948094;28;89577;-42
2023/07/04 11:32:37;;;;;;;94.45;57.08;;;24.10;58.60;;;;;;4943422;28;90156;-43
2023/07/04 11:35:13;;;;;;;94.28;57.25;;;24.10;58.00;;;;;;4949164;28;88855;-43
2023/07/04 11:38:12;;;;;;;93.65;56.80;;;24.10;58.10;;;;;;4940743;28;89389;-44
2023/07/04 11:47:05;;;;;;;93.05;57.03;;;24.10;59.00;;;;;;4942985;28;89846;-42
2023/07/04 11:49:32;;;;;;;93.15;57.03;;;24.10;58.20;;;;;;4944205;28;89742;-43
2023/07/04 11:52:13;;;;;;;95.30;57.28;;;24.10;57.20;;;;;;4937299;28;89752;-43
2023/07/04 11:54:38;;;;;;;95.43;57.53;;;24.20;58.40;;;;;;4944781;28;90213;-43
2023/07/04 11:57:08;;;;;;;94.90;57.10;;;24.20;57.80;;;;;;4940242;28;91303;-44
2023/07/04 11:59:38;;;;;;;92.65;56.85;;;24.20;58.60;;;;;;4938475;28;89678;-44
2023/07/04 12:02:12;;;;;;;92.97;57.17;;;24.20;57.40;;;;;;4941800;28;90306;-43
2023/07/04 12:04:38;;;;;;;92.63;57.05;;;24.20;58.70;;;;;;4942326;28;89401;-44
2023/07/04 12:07:29;;;;;;;94.13;57.20;;;24.20;59.30;;;;;;4935205;28;90475;-42
2023/07/04 12:10:01;;;;;;;94.47;57.15;;;24.20;57.20;;;;;;4939101;28;91366;-42
2023/07/04 12:12:29;;;;;;;95.25;57.72;;;24.20;58.00;;;;;;4944029;28;89593;-43
2023/07/04 12:15:14;;;;;;;92.85;57.33;;;24.10;60.70;;;;;;4944125;28;89505;-42
2023/07/04 12:17:42;;;;;;;93.45;57.22;;;24.10;59.40;;;;;;4943549;28;89622;-43
2023/07/04 12:20:13;;;;;;;96.80;57.22;;;24.10;59.20;;;;;;4943659;28;89531;-43
2023/07/04 12:22:51;;;;;;;96.60;57.35;;;24.10;59.10;;;;;;4948529;28;89967;-43
2023/07/04 12:25:32;;;;;;;92.55;57.20;;;24.00;57.40;;;;;;4939963;28;92513;-43
2023/07/04 12:28:01;;;;;;;98.93;56.70;;;23.90;58.60;;;;;;4946212;28;89260;-42
2023/07/04 12:30:27;;;;;;;96.63;56.97;;;23.90;59.90;;;;;;4942040;28;89523;-43
2023/07/04 12:32:53;;;;;;;96.35;57.22;;;23.90;58.60;;;;;;4944277;28;89900;-42
2023/07/04 12:35:25;;;;;;;96.47;56.60;;;23.80;58.40;;;;;;4938026;28;90447;-44
2023/07/04 12:37:54;;;;;;;94.40;56.60;;;23.80;59.00;;;;;;4946613;28;90311;-45
2023/07/04 12:40:23;;;;;;;94.75;57.13;;;23.80;60.40;;;;;;4936995;28;89866;-44
2023/07/04 12:42:49;;;;;;;96.68;57.17;;;23.80;60.60;;;;;;4944726;28;92680;-43
2023/07/04 12:45:22;;;;;;;93.88;56.72;;;23.80;59.80;;;;;;4940435;28;90888;-44